Accord, New York
Current Conditions -  °F | °C
As of 9:24 AM on Tuesday 21 Oct 2014 (Local Time) from KMGJ Reporting Station
Light Rain Light Rain  
Wind Chill: 48°   Ceiling: 3900
Heat Index: 48°   Visibility: 3mi
Dew Point: 46°   Wind: 0mph
Humidity: 93%   Direction: NA
Pressure: 29.92"   Gusts: NA
Location:  41.79°N, 74.23°W
Report Text: KMGJ 211324Z AUTO 00000KT 3SM -RA BR BKN039 OVC055 09/08 A2992 RMK AO2 RAB09 P0008 T00890078 TSNO
Loading
Personal Weather Stations






























Interactive Weather Map New forecast layout! Learn more

10-Day Weather Forecast

Advertisements
Track Severe Weather on mobile